createdAt,value
2018-12-21T00:02:21.730Z,16.95
2018-12-21T00:04:55.025Z,17.42
2018-12-21T00:07:28.480Z,17.80
2018-12-21T00:10:02.194Z,15.98
2018-12-21T00:12:36.820Z,17.60
2018-12-21T00:15:10.507Z,16.45
2018-12-21T00:17:45.249Z,17.05
2018-12-21T00:20:18.891Z,16.95
2018-12-21T00:22:52.500Z,17.52
2018-12-21T00:25:26.253Z,16.67
2018-12-21T00:27:59.603Z,18.02
2018-12-21T00:30:32.729Z,16.05
2018-12-21T00:33:12.001Z,17.07
2018-12-21T00:35:51.542Z,17.95
2018-12-21T00:38:30.877Z,18.75
2018-12-21T00:41:10.135Z,17.70
2018-12-21T00:43:50.369Z,17.62
2018-12-21T00:46:26.226Z,17.27
2018-12-21T00:48:59.545Z,18.25
2018-12-21T00:51:32.923Z,19.90
2018-12-21T00:54:06.785Z,16.70
2018-12-21T00:56:40.279Z,18.80
2018-12-21T00:59:13.883Z,19.12
2018-12-21T01:01:47.450Z,18.45
2018-12-21T01:04:21.126Z,18.50
2018-12-21T01:06:55.827Z,18.52
2018-12-21T01:09:29.338Z,18.48
2018-12-21T01:12:03.218Z,18.35
2018-12-21T01:14:36.863Z,19.60
2018-12-21T01:17:10.367Z,18.90
2018-12-21T01:19:43.856Z,19.95
2018-12-21T01:22:17.373Z,19.42
2018-12-21T01:24:50.877Z,19.20
2018-12-21T01:27:24.234Z,17.23
2018-12-21T01:29:57.599Z,17.67
2018-12-21T01:32:31.386Z,18.50
2018-12-21T01:35:05.254Z,18.80
2018-12-21T01:37:38.721Z,18.60
2018-12-21T01:40:12.217Z,19.32
2018-12-21T01:42:45.701Z,18.30
2018-12-21T01:45:19.335Z,18.85
2018-12-21T01:47:52.771Z,18.00
2018-12-21T01:50:26.314Z,17.42
2018-12-21T01:52:59.790Z,18.48
2018-12-21T01:55:33.091Z,16.97
2018-12-21T01:58:06.652Z,18.37
2018-12-21T02:00:40.549Z,16.93
2018-12-21T02:03:13.981Z,16.12
2018-12-21T02:05:47.449Z,16.57
2018-12-21T02:08:20.950Z,16.52
2018-12-21T02:10:54.550Z,16.62
2018-12-21T02:13:28.078Z,14.87
2018-12-21T02:16:01.561Z,15.70
2018-12-21T02:18:35.120Z,15.70
2018-12-21T02:21:08.613Z,14.55
2018-12-21T02:23:41.855Z,15.18
2018-12-21T02:26:15.219Z,15.08
2018-12-21T02:28:48.669Z,13.85
2018-12-21T02:31:22.054Z,14.55
2018-12-21T02:33:55.540Z,14.28
2018-12-21T02:36:29.420Z,14.23
2018-12-21T02:39:04.710Z,13.68
2018-12-21T02:41:38.347Z,13.88
2018-12-21T02:44:12.045Z,12.07
2018-12-21T02:46:45.647Z,12.30
2018-12-21T02:49:19.322Z,13.18
2018-12-21T02:51:53.055Z,13.75
2018-12-21T02:54:27.269Z,12.88
2018-12-21T02:57:00.813Z,12.53
2018-12-21T02:59:34.410Z,11.70
2018-12-21T03:02:07.830Z,12.88
2018-12-21T03:04:41.494Z,11.93
2018-12-21T03:07:15.078Z,11.38
2018-12-21T03:09:48.457Z,12.03
2018-12-21T03:12:22.079Z,11.03
2018-12-21T03:14:55.386Z,11.15
2018-12-21T03:17:28.760Z,11.08
2018-12-21T03:20:02.607Z,11.55
2018-12-21T03:22:35.920Z,13.28
2018-12-21T03:25:09.427Z,12.50
2018-12-21T03:27:42.963Z,12.75
2018-12-21T03:30:16.586Z,13.50
2018-12-21T03:32:50.159Z,12.40
2018-12-21T03:35:23.527Z,13.80
2018-12-21T03:37:56.907Z,14.53
2018-12-21T03:40:30.353Z,15.08
2018-12-21T03:43:04.071Z,14.70
2018-12-21T03:45:37.848Z,14.58
2018-12-21T03:48:11.337Z,14.30
2018-12-21T03:50:44.582Z,14.95
2018-12-21T03:53:18.118Z,14.10
2018-12-21T03:55:51.535Z,13.65
2018-12-21T03:58:25.052Z,13.58
2018-12-21T04:00:58.557Z,13.93
2018-12-21T04:03:32.045Z,13.10
2018-12-21T04:06:05.625Z,14.38
2018-12-21T04:08:39.117Z,13.35
2018-12-21T04:11:12.649Z,12.95
2018-12-21T04:13:46.253Z,13.53
2018-12-21T04:16:19.531Z,11.73
2018-12-21T04:18:52.979Z,12.82
2018-12-21T04:21:26.529Z,13.13
2018-12-21T04:23:59.834Z,12.15
2018-12-21T04:26:33.407Z,11.80
2018-12-21T04:29:07.802Z,11.80
2018-12-21T04:31:41.409Z,11.65
2018-12-21T04:34:14.905Z,11.55
2018-12-21T04:36:48.305Z,12.47
2018-12-21T04:39:21.818Z,10.85
2018-12-21T04:41:55.317Z,10.90
2018-12-21T04:44:28.696Z,11.33
2018-12-21T04:47:02.322Z,9.78
2018-12-21T04:49:35.832Z,10.25
2018-12-21T04:52:09.547Z,9.25
2018-12-21T04:54:42.859Z,9.98
2018-12-21T04:57:16.302Z,9.05
2018-12-21T04:59:49.646Z,9.35
2018-12-21T05:02:23.090Z,10.03
2018-12-21T05:04:56.386Z,9.60
2018-12-21T05:07:29.897Z,9.40
2018-12-21T05:10:03.766Z,8.75
2018-12-21T05:12:37.305Z,9.05
2018-12-21T05:15:10.730Z,8.53
2018-12-21T05:17:44.429Z,8.50
2018-12-21T05:20:17.885Z,8.33
2018-12-21T05:22:54.525Z,8.33
2018-12-21T05:25:28.061Z,7.30
2018-12-21T05:28:01.560Z,8.18
2018-12-21T05:30:35.169Z,8.15
2018-12-21T05:33:08.794Z,7.53
2018-12-21T05:35:42.209Z,7.05
2018-12-21T05:38:15.817Z,7.40
2018-12-21T05:40:49.369Z,6.80
2018-12-21T05:43:22.988Z,7.30
2018-12-21T05:45:56.282Z,6.75
2018-12-21T05:48:29.834Z,7.25
2018-12-21T05:51:03.407Z,6.42
2018-12-21T05:53:37.012Z,7.03
2018-12-21T05:56:10.518Z,6.80
2018-12-21T05:58:44.016Z,7.08
2018-12-21T06:01:17.746Z,7.25
2018-12-21T06:03:51.393Z,7.08
2018-12-21T06:06:24.835Z,6.70
2018-12-21T06:08:58.249Z,6.55
2018-12-21T06:11:31.667Z,6.42
2018-12-21T06:14:06.362Z,6.15
2018-12-21T06:16:39.933Z,6.97
2018-12-21T06:19:13.509Z,6.75
2018-12-21T06:21:47.150Z,6.22
2018-12-21T06:24:20.782Z,6.28
2018-12-21T06:26:54.284Z,6.58
2018-12-21T06:29:28.066Z,6.37
2018-12-21T06:32:01.685Z,6.30
2018-12-21T06:34:35.036Z,6.72
2018-12-21T06:37:08.432Z,6.22
2018-12-21T06:39:41.949Z,6.37
2018-12-21T06:42:15.338Z,6.03
2018-12-21T06:44:48.971Z,6.15
2018-12-21T06:47:22.453Z,6.47
2018-12-21T06:49:55.903Z,6.37
2018-12-21T06:52:29.379Z,6.10
2018-12-21T06:55:03.178Z,5.55
2018-12-21T06:57:36.695Z,5.67
2018-12-21T07:00:11.684Z,5.78
2018-12-21T07:02:45.350Z,5.47
2018-12-21T07:05:18.889Z,5.35
2018-12-21T07:07:52.492Z,5.30
2018-12-21T07:10:26.021Z,5.30
2018-12-21T07:12:59.472Z,5.40
2018-12-21T07:15:33.087Z,4.62
2018-12-21T07:18:06.580Z,4.87
2018-12-21T07:20:40.229Z,4.85
2018-12-21T07:23:13.746Z,4.62
2018-12-21T07:25:47.182Z,4.90
2018-12-21T07:28:20.806Z,4.75
2018-12-21T07:30:54.430Z,4.22
2018-12-21T07:33:27.791Z,4.75
2018-12-21T07:36:08.331Z,5.00
2018-12-21T07:38:36.967Z,5.20
2018-12-21T07:41:10.453Z,5.40
2018-12-21T07:43:44.065Z,6.08
2018-12-21T07:46:17.654Z,5.67
2018-12-21T07:48:51.601Z,5.00
2018-12-21T07:51:25.002Z,5.50
2018-12-21T07:53:58.525Z,5.87
2018-12-21T07:56:32.125Z,6.00
2018-12-21T07:59:05.421Z,6.17
2018-12-21T08:01:38.858Z,5.45
2018-12-21T08:04:12.494Z,5.83
2018-12-21T08:06:46.025Z,6.50
2018-12-21T08:09:19.482Z,6.25
2018-12-21T08:11:53.085Z,5.40
2018-12-21T08:14:26.481Z,5.80
2018-12-21T08:17:00.230Z,5.80
2018-12-21T08:19:33.677Z,6.03
2018-12-21T08:22:07.146Z,6.10
2018-12-21T08:24:40.855Z,5.58
2018-12-21T08:27:14.351Z,5.53
2018-12-21T08:29:47.752Z,5.80
2018-12-21T08:32:21.208Z,5.67
2018-12-21T08:34:54.737Z,5.67
2018-12-21T08:37:28.410Z,5.87
2018-12-21T08:40:01.791Z,5.55
2018-12-21T08:42:35.419Z,5.58
2018-12-21T08:45:09.359Z,6.08
2018-12-21T08:47:42.907Z,4.95
2018-12-21T08:50:16.349Z,5.15
2018-12-21T08:52:49.930Z,5.55
2018-12-21T08:55:23.601Z,5.42
2018-12-21T08:57:57.053Z,5.55
2018-12-21T09:00:30.682Z,5.20
2018-12-21T09:03:04.223Z,5.12
2018-12-21T09:05:37.625Z,5.17
2018-12-21T09:08:11.082Z,4.78
2018-12-21T09:10:44.631Z,4.70
2018-12-21T09:13:18.247Z,5.05
2018-12-21T09:15:51.651Z,4.50
2018-12-21T09:18:25.177Z,4.33
2018-12-21T09:20:58.721Z,4.40
2018-12-21T09:23:32.392Z,5.03
2018-12-21T09:26:05.933Z,4.45
2018-12-21T09:28:39.589Z,5.10
2018-12-21T09:31:12.956Z,4.20
2018-12-21T09:33:46.277Z,4.50
2018-12-21T09:36:19.884Z,4.60
2018-12-21T09:38:53.303Z,4.78
2018-12-21T09:41:26.873Z,4.72
2018-12-21T09:44:00.233Z,4.28
2018-12-21T09:46:33.813Z,3.90
2018-12-21T09:49:07.341Z,4.95
2018-12-21T09:51:41.002Z,4.53
2018-12-21T09:54:14.591Z,4.70
2018-12-21T09:56:47.786Z,4.50
2018-12-21T09:59:21.321Z,3.80
2018-12-21T10:01:54.741Z,4.17
2018-12-21T10:04:28.193Z,3.42
2018-12-21T10:07:01.637Z,3.90
2018-12-21T10:09:35.378Z,3.65
2018-12-21T10:12:08.710Z,3.98
2018-12-21T10:14:42.229Z,3.70
2018-12-21T10:17:15.560Z,3.72
2018-12-21T10:19:49.010Z,4.03
2018-12-21T10:22:22.594Z,3.75
2018-12-21T10:24:56.325Z,4.10
2018-12-21T10:27:29.846Z,4.22
2018-12-21T10:30:04.047Z,4.20
2018-12-21T10:32:37.671Z,4.17
2018-12-21T10:35:11.370Z,5.12
2018-12-21T10:37:44.982Z,4.80
2018-12-21T10:40:19.183Z,4.70
2018-12-21T10:42:52.983Z,5.15
2018-12-21T10:45:26.654Z,5.17
2018-12-21T10:48:00.203Z,4.75
2018-12-21T10:50:33.805Z,4.80
2018-12-21T10:53:07.390Z,4.90
2018-12-21T10:55:40.813Z,4.08
2018-12-21T10:58:14.285Z,5.03
2018-12-21T11:00:47.737Z,8.58
2018-12-21T11:03:21.200Z,4.65
2018-12-21T11:05:54.551Z,4.78
2018-12-21T11:08:28.089Z,4.78
2018-12-21T11:11:01.578Z,5.30
2018-12-21T11:13:35.329Z,5.40
2018-12-21T11:16:08.750Z,5.90
2018-12-21T11:18:42.278Z,4.30
2018-12-21T11:21:15.836Z,5.25
2018-12-21T11:23:49.528Z,4.83
2018-12-21T11:26:22.993Z,6.95
2018-12-21T11:28:56.461Z,4.67
2018-12-21T11:31:29.826Z,4.47
2018-12-21T11:34:03.496Z,5.55
2018-12-21T11:36:36.935Z,4.83
2018-12-21T11:39:10.637Z,4.67
2018-12-21T11:41:44.294Z,4.95
2018-12-21T11:44:17.922Z,4.95
2018-12-21T11:46:51.608Z,4.40
2018-12-21T11:49:24.963Z,5.00
2018-12-21T11:51:58.352Z,4.47
2018-12-21T11:54:32.670Z,4.42
2018-12-21T11:57:06.090Z,5.03
2018-12-21T11:59:44.802Z,4.65
2018-12-21T12:02:19.489Z,4.53
2018-12-21T12:04:50.552Z,5.28
2018-12-21T12:07:23.916Z,5.00
2018-12-21T12:09:58.106Z,4.85
2018-12-21T12:12:31.873Z,4.00
2018-12-21T12:15:06.773Z,4.22
2018-12-21T12:17:40.471Z,4.30
2018-12-21T12:20:14.208Z,4.55
2018-12-21T12:22:47.547Z,4.37
2018-12-21T12:25:21.099Z,5.65
2018-12-21T12:27:54.701Z,3.90
2018-12-21T12:30:28.200Z,3.70
2018-12-21T12:33:01.577Z,3.27
2018-12-21T12:35:35.302Z,3.20
2018-12-21T12:38:09.478Z,4.78
2018-12-21T12:40:43.056Z,2.92
2018-12-21T12:43:16.474Z,2.72
2018-12-21T12:45:50.147Z,3.02
2018-12-21T12:48:23.506Z,2.98
2018-12-21T12:50:57.146Z,3.08
2018-12-21T12:53:30.728Z,2.85
2018-12-21T12:56:05.369Z,3.10
2018-12-21T12:58:39.282Z,3.45
2018-12-21T13:01:12.844Z,3.42
2018-12-21T13:03:46.602Z,3.58
2018-12-21T13:06:19.975Z,3.30
2018-12-21T13:08:53.430Z,3.45
2018-12-21T13:11:27.250Z,3.65
2018-12-21T13:14:01.087Z,3.95
2018-12-21T13:16:34.451Z,4.10
2018-12-21T13:19:08.183Z,4.65
2018-12-21T13:21:41.764Z,4.58
2018-12-21T13:24:15.153Z,4.08
2018-12-21T13:26:48.636Z,4.60
2018-12-21T13:29:22.110Z,5.33
2018-12-21T13:31:55.779Z,5.12
2018-12-21T13:34:29.347Z,5.72
2018-12-21T13:37:03.012Z,4.92
2018-12-21T13:39:36.332Z,4.90
2018-12-21T13:42:09.817Z,5.40
2018-12-21T13:44:43.352Z,5.22
2018-12-21T13:47:16.877Z,5.22
2018-12-21T13:49:50.328Z,5.15
2018-12-21T13:52:23.760Z,5.47
2018-12-21T13:54:57.226Z,5.10
2018-12-21T13:57:30.893Z,4.58
2018-12-21T14:00:06.162Z,4.80
2018-12-21T14:02:39.629Z,4.97
2018-12-21T14:05:13.232Z,4.45
2018-12-21T14:07:46.946Z,4.72
2018-12-21T14:10:20.543Z,4.67
2018-12-21T14:12:53.956Z,4.10
2018-12-21T14:15:27.410Z,5.03
2018-12-21T14:18:01.077Z,5.20
2018-12-21T14:20:34.555Z,5.10
2018-12-21T14:23:08.054Z,4.40
2018-12-21T14:25:41.407Z,4.50
2018-12-21T14:28:14.743Z,4.05
2018-12-21T14:30:48.217Z,4.17
2018-12-21T14:33:22.762Z,4.20
2018-12-21T14:35:56.131Z,4.33
2018-12-21T14:38:29.707Z,4.70
2018-12-21T14:41:03.358Z,4.35
2018-12-21T14:43:36.761Z,4.50
2018-12-21T14:46:10.419Z,4.05
2018-12-21T14:48:44.025Z,4.45
2018-12-21T14:51:17.482Z,4.75
2018-12-21T14:53:51.187Z,4.97
2018-12-21T14:56:24.841Z,5.22
2018-12-21T14:58:58.359Z,5.17
2018-12-21T15:01:31.592Z,6.97
2018-12-21T15:04:05.185Z,5.90
2018-12-21T15:06:38.662Z,6.78
2018-12-21T15:09:12.017Z,5.55
2018-12-21T15:11:45.403Z,5.10
2018-12-21T15:14:18.923Z,5.80
2018-12-21T15:16:52.401Z,6.08
2018-12-21T15:19:25.709Z,5.33
2018-12-21T15:21:59.367Z,6.05
2018-12-21T15:24:32.800Z,5.72
2018-12-21T15:27:06.361Z,6.12
2018-12-21T15:29:41.074Z,5.90
2018-12-21T15:32:14.725Z,5.00
2018-12-21T15:34:48.239Z,5.80
2018-12-21T15:37:21.855Z,5.67
2018-12-21T15:39:55.252Z,5.22
2018-12-21T15:42:28.730Z,5.08
2018-12-21T15:45:02.216Z,5.08
2018-12-21T15:47:36.650Z,5.92
2018-12-21T15:50:11.170Z,5.80
2018-12-21T15:52:44.704Z,5.20
2018-12-21T15:55:18.608Z,5.45
2018-12-21T15:57:52.041Z,5.72
2018-12-21T16:00:25.593Z,6.50
2018-12-21T16:03:00.197Z,5.20
2018-12-21T16:05:33.669Z,5.70
2018-12-21T16:08:07.207Z,4.95
2018-12-21T16:10:40.501Z,5.30
2018-12-21T16:13:14.091Z,4.92
2018-12-21T16:15:47.470Z,4.87
2018-12-21T16:18:20.960Z,5.40
2018-12-21T16:20:54.290Z,5.50
2018-12-21T16:23:27.899Z,5.12
2018-12-21T16:26:03.604Z,6.15
2018-12-21T16:28:36.870Z,6.50
2018-12-21T16:31:10.546Z,7.15
2018-12-21T16:33:44.137Z,7.62
2018-12-21T16:36:17.705Z,6.97
2018-12-21T16:38:51.205Z,6.95
2018-12-21T16:41:24.861Z,7.00
2018-12-21T16:43:58.461Z,7.10
2018-12-21T16:46:32.578Z,7.88
2018-12-21T16:49:05.914Z,7.08
2018-12-21T16:51:39.469Z,6.97
2018-12-21T16:54:12.831Z,7.45
2018-12-21T16:56:46.610Z,7.40
2018-12-21T16:59:19.856Z,7.40
2018-12-21T17:01:53.257Z,7.78
2018-12-21T17:04:26.792Z,7.58
2018-12-21T17:07:00.210Z,8.53
2018-12-21T17:09:33.570Z,9.70
2018-12-21T17:12:07.152Z,10.15
2018-12-21T17:14:40.769Z,11.53
2018-12-21T17:17:14.412Z,14.87
2018-12-21T17:19:47.760Z,15.93
2018-12-21T17:22:21.484Z,14.95
2018-12-21T17:24:54.878Z,14.05
2018-12-21T17:27:28.357Z,14.43
2018-12-21T17:30:01.952Z,13.95
2018-12-21T17:32:35.291Z,14.43
2018-12-21T17:35:09.345Z,14.33
2018-12-21T17:37:43.677Z,15.98
2018-12-21T17:40:17.586Z,14.10
2018-12-21T17:42:51.029Z,12.82
2018-12-21T17:45:24.718Z,14.03
2018-12-21T17:47:58.050Z,10.48
2018-12-21T17:50:32.340Z,13.18
2018-12-21T17:53:06.189Z,14.03
2018-12-21T17:55:39.891Z,10.93
2018-12-21T17:58:13.358Z,11.18
2018-12-21T18:00:47.086Z,9.08
2018-12-21T18:03:31.030Z,7.90
2018-12-21T18:06:04.508Z,7.95
2018-12-21T18:08:37.823Z,8.00
2018-12-21T18:11:11.378Z,8.85
2018-12-21T18:13:44.814Z,6.45
2018-12-21T18:16:18.317Z,6.87
2018-12-21T18:18:51.732Z,8.20
2018-12-21T18:21:25.481Z,5.40
2018-12-21T18:23:58.833Z,4.25
2018-12-21T18:26:38.538Z,4.83
2018-12-21T18:29:07.761Z,4.35
2018-12-21T18:32:18.612Z,3.35
2018-12-21T18:34:52.053Z,3.17
2018-12-21T18:37:26.131Z,4.20
2018-12-21T18:39:59.560Z,5.03
2018-12-21T18:42:33.166Z,5.17
2018-12-21T18:45:06.611Z,4.10
2018-12-21T18:47:40.427Z,3.65
2018-12-21T18:50:13.937Z,3.00
2018-12-21T18:52:47.465Z,3.65
2018-12-21T18:55:20.950Z,4.33
2018-12-21T18:57:54.198Z,5.40
2018-12-21T19:00:27.946Z,4.15
2018-12-21T19:03:01.295Z,4.40
2018-12-21T19:05:34.871Z,2.72
2018-12-21T19:08:08.310Z,3.87
2018-12-21T19:10:41.705Z,4.20
2018-12-21T19:13:15.082Z,3.90
2018-12-21T19:15:48.494Z,3.35
2018-12-21T19:18:21.763Z,3.85
2018-12-21T19:20:56.930Z,4.12
2018-12-21T19:23:30.236Z,3.85
2018-12-21T19:26:03.817Z,4.00
2018-12-21T19:28:39.322Z,4.58
2018-12-21T19:31:13.292Z,5.33
2018-12-21T19:33:46.981Z,4.47
2018-12-21T19:36:20.366Z,4.78
2018-12-21T19:38:53.932Z,4.97
2018-12-21T19:41:27.448Z,3.95
2018-12-21T19:44:01.206Z,4.08
2018-12-21T19:46:34.713Z,4.85
2018-12-21T19:49:08.235Z,3.98
2018-12-21T19:51:41.885Z,4.53
2018-12-21T19:54:18.326Z,5.25
2018-12-21T19:57:09.949Z,4.08
2018-12-21T19:59:43.552Z,4.20
2018-12-21T20:02:16.969Z,4.00
2018-12-21T20:04:50.519Z,4.85
2018-12-21T20:07:24.174Z,4.22
2018-12-21T20:09:59.046Z,6.17
2018-12-21T20:12:32.429Z,3.47
2018-12-21T20:15:07.663Z,3.62
2018-12-21T20:17:41.626Z,3.33
2018-12-21T20:20:15.187Z,3.60
2018-12-21T20:22:48.519Z,4.35
2018-12-21T20:25:21.949Z,3.95
2018-12-21T20:28:02.270Z,3.72
2018-12-21T20:30:36.178Z,3.85
2018-12-21T20:33:12.056Z,4.28
2018-12-21T20:35:45.880Z,4.85
2018-12-21T20:38:21.489Z,4.62
2018-12-21T20:40:55.610Z,3.90
2018-12-21T20:43:28.997Z,3.70
2018-12-21T20:46:02.550Z,3.60
2018-12-21T20:48:36.243Z,3.40
2018-12-21T20:51:09.590Z,2.92
2018-12-21T20:53:43.160Z,3.58
2018-12-21T20:56:16.890Z,3.37
2018-12-21T20:58:56.292Z,4.30
2018-12-21T21:01:29.507Z,4.12
2018-12-21T21:04:03.658Z,3.75
2018-12-21T21:06:37.250Z,5.28
2018-12-21T21:09:12.063Z,5.15
2018-12-21T21:11:45.606Z,4.58
2018-12-21T21:14:20.443Z,5.75
2018-12-21T21:16:53.960Z,6.25
2018-12-21T21:19:30.971Z,6.87
2018-12-21T21:22:04.818Z,6.90
2018-12-21T21:24:38.282Z,6.85
2018-12-21T21:27:11.742Z,6.35
2018-12-21T21:29:45.442Z,7.10
2018-12-21T21:35:56.332Z,6.25
2018-12-21T21:38:29.958Z,6.85
2018-12-21T21:41:03.642Z,7.37
2018-12-21T21:43:37.213Z,7.05
2018-12-21T21:46:10.798Z,6.10
2018-12-21T21:48:44.297Z,5.92
2018-12-21T21:51:17.828Z,6.00
2018-12-21T21:53:51.433Z,6.00
2018-12-21T21:56:24.962Z,5.80
2018-12-21T21:58:58.566Z,6.45
2018-12-21T22:01:32.048Z,5.67
2018-12-21T22:04:05.612Z,5.87
2018-12-21T22:06:39.128Z,5.40
2018-12-21T22:09:12.737Z,5.65
2018-12-21T22:11:46.369Z,6.12
2018-12-21T22:14:19.835Z,5.40
2018-12-21T22:16:53.497Z,5.42
2018-12-21T22:19:26.961Z,5.92
2018-12-21T22:22:00.469Z,4.53
2018-12-21T22:24:34.103Z,4.58
2018-12-21T22:27:07.787Z,4.95
2018-12-21T22:29:41.279Z,3.33
2018-12-21T22:32:14.863Z,3.27
2018-12-21T22:34:48.259Z,3.30
2018-12-21T22:37:21.998Z,3.22
2018-12-21T22:39:55.434Z,3.02
2018-12-21T22:42:28.994Z,3.02
2018-12-21T22:45:02.461Z,3.45
2018-12-21T22:47:36.203Z,3.17
2018-12-21T22:50:09.731Z,3.17
2018-12-21T22:52:43.355Z,3.00
2018-12-21T22:55:16.978Z,3.37
2018-12-21T22:57:56.451Z,3.05
2018-12-21T23:00:34.022Z,2.58
2018-12-21T23:03:07.721Z,2.95
2018-12-21T23:05:41.248Z,2.60
2018-12-21T23:08:15.201Z,2.52
2018-12-21T23:10:48.720Z,2.87
2018-12-21T23:13:22.203Z,2.50
2018-12-21T23:15:55.665Z,2.77
2018-12-21T23:18:29.166Z,3.12
2018-12-21T23:21:02.614Z,3.00
2018-12-21T23:23:36.125Z,2.72
2018-12-21T23:26:09.596Z,3.30
2018-12-21T23:28:43.256Z,3.00
2018-12-21T23:31:16.729Z,3.20
2018-12-21T23:33:50.059Z,3.08
2018-12-21T23:36:23.582Z,3.10
2018-12-21T23:38:56.976Z,2.77
2018-12-21T23:41:30.474Z,2.75
2018-12-21T23:44:04.287Z,2.30
2018-12-21T23:46:37.922Z,2.70
2018-12-21T23:49:11.544Z,2.35
2018-12-21T23:51:45.204Z,1.98
2018-12-21T23:54:18.988Z,2.72
2018-12-21T23:56:52.517Z,2.33
2018-12-21T23:59:26.019Z,2.20
